Live Your Life

Объявление

Информация о пользователе

Привет, Гость! Войдите или зарегистрируйтесь.


Вы здесь » Live Your Life » Неформат


Неформат

Тем 1 страница 30 из 42

Тема Ответов Просмотров Последнее сообщение
1 Важно: Fire and blood  северные огни
3 307 07-01-2019 16:43:16  северные огни
36 1819 Сегодня 12:47:30  Дэк
95 4204 Вчера 19:15:51  DeWitt
4 Infinitum  Dian Keht
4 173 Вчера 19:01:28  Dian Keht
19 536 Вчера 17:38:15  на мечах
6 LDC: Seize the day  Greenduck
9 279 Вчера 12:01:13  Greenduck
208 12189 18-01-2019 16:33:01  LRS
8 Gorham  go down
6 292 18-01-2019 09:35:20  with-smith
1 90 17-01-2019 12:42:25  нян
24 801 16-01-2019 20:16:01  Kiros56488123
17 682 15-01-2019 22:03:21  Hurley
184 5674 15-01-2019 17:46:24  Vitaminka
5 104 15-01-2019 16:23:07  Натан
5 323 15-01-2019 15:24:37  Фагот
15 Нассау  Летучий Голландец  [ Тема 15 Page 1 Тема 15 Page 2 Тема 15 Page 3 ]
45 2484 13-01-2019 21:13:32  Флинт
42 1295 13-01-2019 15:47:07  Archie_Toothy
4 355 11-01-2019 18:40:42  Morgoth
27 1903 11-01-2019 12:54:44  Флинт
2 245 10-01-2019 21:17:35  Ich
20 Tempus Futurum  12000 suns
16 668 07-01-2019 23:45:01  12000 suns
7 491 07-01-2019 23:41:37  Fro
22 Космический ветер  Кот капитана Флинта  [ Тема 22 Page 1 Тема 22 Page 2 ]
32 1536 07-01-2019 08:14:27  Кот капитана Флинта
116 5081 31-12-2018 20:46:22  Automation baby
21 502 31-12-2018 20:20:30  Pa-ku
25 The Mist  Mao
13 1252 30-12-2018 22:49:17  Mao
24 758 29-12-2018 16:45:22  Heath
12 1338 29-12-2018 00:28:49  Генеральный секретарь
28 Российская Империя  Принц Датский
0 81 28-12-2018 20:25:55  Принц Датский
46 4757 25-12-2018 17:01:25  Prologue
30 Grammaire  Grammaire
7 395 20-12-2018 23:05:45  Grammaire

Вы здесь » Live Your Life » Неформат


Рейтинг форумов | Создать форум бесплатно © 2007–2017 «QuadroSystems» LLC